sensor_id;sensor_type;location;lat;lon;timestamp;pressure;altitude;pressure_sealevel;temperature;humidity
73341;BME280;61578;52.002;5.468;2022-12-18T00:00:12;102863.97;;;-3.28;91.68
73341;BME280;61578;52.002;5.468;2022-12-18T00:01:05;102856.19;;;-3.28;91.47
73341;BME280;61578;52.002;5.468;2022-12-18T00:02:05;102856.00;;;-3.34;91.86
73341;BME280;61578;52.002;5.468;2022-12-18T00:02:56;102864.78;;;-3.30;91.85
73341;BME280;61578;52.002;5.468;2022-12-18T00:03:48;102826.91;;;-3.55;91.92
73341;BME280;61578;52.002;5.468;2022-12-18T00:04:40;102864.63;;;-3.37;91.87
73341;BME280;61578;52.002;5.468;2022-12-18T00:05:31;102761.56;;;-4.07;92.08
73341;BME280;61578;52.002;5.468;2022-12-18T00:06:24;102840.06;;;-3.49;92.15
73341;BME280;61578;52.002;5.468;2022-12-18T00:07:12;102859.50;;;-3.34;92.13
73341;BME280;61578;52.002;5.468;2022-12-18T00:07:43;102864.69;;;-3.34;91.84
73341;BME280;61578;52.002;5.468;2022-12-18T00:08:14;102869.88;;;-3.34;91.68
73341;BME280;61578;52.002;5.468;2022-12-18T00:08:45;102862.91;;;-3.35;91.80
73341;BME280;61578;52.002;5.468;2022-12-18T00:09:17;102864.53;;;-3.40;91.41
73341;BME280;61578;52.002;5.468;2022-12-18T00:09:48;102854.09;;;-3.41;91.68
73341;BME280;61578;52.002;5.468;2022-12-18T00:10:19;102859.31;;;-3.41;91.85
73341;BME280;61578;52.002;5.468;2022-12-18T00:10:49;102846.31;;;-3.41;91.57
73341;BME280;61578;52.002;5.468;2022-12-18T00:11:23;102847.09;;;-3.44;91.41
73341;BME280;61578;52.002;5.468;2022-12-18T00:11:55;102859.25;;;-3.43;91.90
73341;BME280;61578;52.002;5.468;2022-12-18T00:12:26;102848.88;;;-3.43;91.82
73341;BME280;61578;52.002;5.468;2022-12-18T00:12:56;102846.13;;;-3.49;91.72
73341;BME280;61578;52.002;5.468;2022-12-18T00:13:27;102843.56;;;-3.47;92.01
73341;BME280;61578;52.002;5.468;2022-12-18T00:13:59;102853.13;;;-3.45;92.10
73341;BME280;61578;52.002;5.468;2022-12-18T00:14:30;102846.13;;;-3.49;92.16
73341;BME280;61578;52.002;5.468;2022-12-18T00:15:01;102841.81;;;-3.48;91.85
73341;BME280;61578;52.002;5.468;2022-12-18T00:15:34;102842.47;;;-3.57;91.75
73341;BME280;61578;52.002;5.468;2022-12-18T00:16:09;102843.41;;;-3.53;91.95
73341;BME280;61578;52.002;5.468;2022-12-18T00:16:46;102837.47;;;-3.49;91.76
73341;BME280;61578;52.002;5.468;2022-12-18T00:17:17;102752.22;;;-4.00;92.16
73341;BME280;61578;52.002;5.468;2022-12-18T00:17:48;102848.69;;;-3.50;91.73
73341;BME280;61578;52.002;5.468;2022-12-18T00:18:18;102819.00;;;-3.60;92.08
73341;BME280;61578;52.002;5.468;2022-12-18T00:18:52;102831.22;;;-3.56;91.88
73341;BME280;61578;52.002;5.468;2022-12-18T00:19:24;102800.44;;;-3.75;91.64
73341;BME280;61578;52.002;5.468;2022-12-18T00:19:55;102841.66;;;-3.54;92.00
73341;BME280;61578;52.002;5.468;2022-12-18T00:20:25;102824.28;;;-3.57;91.97
73341;BME280;61578;52.002;5.468;2022-12-18T00:21:01;102828.56;;;-3.59;92.04
73341;BME280;61578;52.002;5.468;2022-12-18T00:21:34;102832.97;;;-3.56;91.59
73341;BME280;61578;52.002;5.468;2022-12-18T00:22:05;102827.72;;;-3.58;92.27
73341;BME280;61578;52.002;5.468;2022-12-18T00:22:36;102832.09;;;-3.57;91.87
73341;BME280;61578;52.002;5.468;2022-12-18T00:23:07;102821.63;;;-3.60;91.88
73341;BME280;61578;52.002;5.468;2022-12-18T00:23:39;102825.00;;;-3.62;92.22
73341;BME280;61578;52.002;5.468;2022-12-18T00:24:12;102819.72;;;-3.65;91.98
73341;BME280;61578;52.002;5.468;2022-12-18T00:24:42;102795.19;;;-3.78;91.86
73341;BME280;61578;52.002;5.468;2022-12-18T00:25:13;102818.88;;;-3.64;91.94
73341;BME280;61578;52.002;5.468;2022-12-18T00:25:44;102828.56;;;-3.59;91.91
73341;BME280;61578;52.002;5.468;2022-12-18T00:26:21;102796.03;;;-3.79;91.99
73341;BME280;61578;52.002;5.468;2022-12-18T00:26:54;102822.31;;;-3.65;92.16
73341;BME280;61578;52.002;5.468;2022-12-18T00:27:25;102835.44;;;-3.61;91.72
73341;BME280;61578;52.002;5.468;2022-12-18T00:27:55;102834.59;;;-3.60;92.15
73341;BME280;61578;52.002;5.468;2022-12-18T00:28:26;102832.84;;;-3.61;91.83
73341;BME280;61578;52.002;5.468;2022-12-18T00:29:03;102830.09;;;-3.67;92.10
73341;BME280;61578;52.002;5.468;2022-12-18T00:29:37;102827.50;;;-3.67;91.90
73341;BME280;61578;52.002;5.468;2022-12-18T00:30:08;102835.28;;;-3.67;91.83
73341;BME280;61578;52.002;5.468;2022-12-18T00:30:39;102844.84;;;-3.64;91.75
73341;BME280;61578;52.002;5.468;2022-12-18T00:31:14;102845.66;;;-3.67;92.00
73341;BME280;61578;52.002;5.468;2022-12-18T00:31:46;102849.97;;;-3.66;92.20
73341;BME280;61578;52.002;5.468;2022-12-18T00:32:17;102847.34;;;-3.69;92.19
73341;BME280;61578;52.002;5.468;2022-12-18T00:32:48;102849.97;;;-3.67;91.90
73341;BME280;61578;52.002;5.468;2022-12-18T00:33:19;102849.97;;;-3.67;92.24
73341;BME280;61578;52.002;5.468;2022-12-18T00:33:50;102857.66;;;-3.71;91.96
73341;BME280;61578;52.002;5.468;2022-12-18T00:34:21;102856.88;;;-3.68;92.08
73341;BME280;61578;52.002;5.468;2022-12-18T00:34:51;102852.59;;;-3.66;92.28
73341;BME280;61578;52.002;5.468;2022-12-18T00:35:22;102849.88;;;-3.71;92.01
73341;BME280;61578;52.002;5.468;2022-12-18T00:35:53;102853.44;;;-3.67;91.99
73341;BME280;61578;52.002;5.468;2022-12-18T00:36:27;102856.88;;;-3.68;92.22
73341;BME280;61578;52.002;5.468;2022-12-18T00:37:00;102853.31;;;-3.72;92.23
73341;BME280;61578;52.002;5.468;2022-12-18T00:37:33;102867.25;;;-3.68;92.33
73341;BME280;61578;52.002;5.468;2022-12-18T00:38:04;102862.97;;;-3.66;92.69
73341;BME280;61578;52.002;5.468;2022-12-18T00:38:36;102856.06;;;-3.65;92.32
73341;BME280;61578;52.002;5.468;2022-12-18T00:39:10;102856.06;;;-3.65;92.61
73341;BME280;61578;52.002;5.468;2022-12-18T00:39:42;102856.16;;;-3.62;92.46
73341;BME280;61578;52.002;5.468;2022-12-18T00:40:13;102856.97;;;-3.63;92.31
73341;BME280;61578;52.002;5.468;2022-12-18T00:40:43;102851.88;;;-3.60;92.31
73341;BME280;61578;52.002;5.468;2022-12-18T00:41:16;102850.06;;;-3.63;92.14
73341;BME280;61578;52.002;5.468;2022-12-18T00:42:10;102842.38;;;-3.60;92.49
73341;BME280;61578;52.002;5.468;2022-12-18T00:42:59;102837.06;;;-3.64;92.47
73341;BME280;61578;52.002;5.468;2022-12-18T00:43:30;102818.69;;;-3.72;92.15
73341;BME280;61578;52.002;5.468;2022-12-18T00:44:02;102831.94;;;-3.61;92.17
73341;BME280;61578;52.002;5.468;2022-12-18T00:44:34;102832.78;;;-3.62;92.25
73341;BME280;61578;52.002;5.468;2022-12-18T00:45:05;102806.41;;;-3.79;92.26
73341;BME280;61578;52.002;5.468;2022-12-18T00:45:36;102836.31;;;-3.60;92.37
73341;BME280;61578;52.002;5.468;2022-12-18T00:46:06;102828.44;;;-3.63;92.26
73341;BME280;61578;52.002;5.468;2022-12-18T00:46:37;102844.09;;;-3.60;92.15
73341;BME280;61578;52.002;5.468;2022-12-18T00:47:08;102841.50;;;-3.60;92.52
73341;BME280;61578;52.002;5.468;2022-12-18T00:47:39;102836.22;;;-3.63;92.25
73341;BME280;61578;52.002;5.468;2022-12-18T00:48:10;102838.03;;;-3.61;91.94
73341;BME280;61578;52.002;5.468;2022-12-18T00:48:41;102831.81;;;-3.66;92.15
73341;BME280;61578;52.002;5.468;2022-12-18T00:49:12;102837.19;;;-3.60;92.11
73341;BME280;61578;52.002;5.468;2022-12-18T00:49:44;102830.22;;;-3.61;91.87
73341;BME280;61578;52.002;5.468;2022-12-18T00:50:15;102830.97;;;-3.65;91.75
73341;BME280;61578;52.002;5.468;2022-12-18T00:50:48;102838.81;;;-3.63;91.76
73341;BME280;61578;52.002;5.468;2022-12-18T00:51:21;102836.16;;;-3.65;91.58
73341;BME280;61578;52.002;5.468;2022-12-18T00:51:53;102831.81;;;-3.67;91.75
73341;BME280;61578;52.002;5.468;2022-12-18T00:52:24;102834.41;;;-3.67;91.82
73341;BME280;61578;52.002;5.468;2022-12-18T00:52:54;102833.44;;;-3.71;91.54
73341;BME280;61578;52.002;5.468;2022-12-18T00:53:25;102834.31;;;-3.71;91.48
73341;BME280;61578;52.002;5.468;2022-12-18T00:53:56;102830.78;;;-3.73;91.66
73341;BME280;61578;52.002;5.468;2022-12-18T00:54:27;102822.06;;;-3.75;91.75
73341;BME280;61578;52.002;5.468;2022-12-18T00:54:57;102830.75;;;-3.74;91.69
73341;BME280;61578;52.002;5.468;2022-12-18T00:55:28;102820.31;;;-3.77;91.82
73341;BME280;61578;52.002;5.468;2022-12-18T00:55:59;102798.19;;;-3.94;91.79
73341;BME280;61578;52.002;5.468;2022-12-18T00:56:30;102812.25;;;-3.86;91.63
73341;BME280;61578;52.002;5.468;2022-12-18T00:57:01;102834.13;;;-3.78;91.75
73341;BME280;61578;52.002;5.468;2022-12-18T00:57:32;102821.94;;;-3.81;91.72
73341;BME280;61578;52.002;5.468;2022-12-18T00:58:03;102817.44;;;-3.86;91.76
73341;BME280;61578;52.002;5.468;2022-12-18T00:58:34;102816.59;;;-3.85;91.59
73341;BME280;61578;52.002;5.468;2022-12-18T00:59:06;102818.31;;;-3.86;91.48
73341;BME280;61578;52.002;5.468;2022-12-18T00:59:36;102825.31;;;-3.83;91.76
73341;BME280;61578;52.002;5.468;2022-12-18T01:00:11;102826.97;;;-3.85;91.65
73341;BME280;61578;52.002;5.468;2022-12-18T01:00:43;102825.22;;;-3.86;91.70
73341;BME280;61578;52.002;5.468;2022-12-18T01:01:14;102828.69;;;-3.86;91.90
73341;BME280;61578;52.002;5.468;2022-12-18T01:01:46;102832.13;;;-3.88;91.82
73341;BME280;61578;52.002;5.468;2022-12-18T01:02:17;102844.25;;;-3.87;91.63
73341;BME280;61578;52.002;5.468;2022-12-18T01:02:49;102833.72;;;-3.92;91.60
73341;BME280;61578;52.002;5.468;2022-12-18T01:03:20;102840.72;;;-3.89;91.88
73341;BME280;61578;52.002;5.468;2022-12-18T01:03:50;102837.16;;;-3.93;91.56
73341;BME280;61578;52.002;5.468;2022-12-18T01:04:21;102847.63;;;-3.90;91.72
73341;BME280;61578;52.002;5.468;2022-12-18T01:04:52;102804.66;;;-4.12;91.67
73341;BME280;61578;52.002;5.468;2022-12-18T01:05:23;102810.81;;;-4.08;91.72
73341;BME280;61578;52.002;5.468;2022-12-18T01:05:53;102837.06;;;-3.96;91.81
73341;BME280;61578;52.002;5.468;2022-12-18T01:06:24;102840.59;;;-3.94;91.54
73341;BME280;61578;52.002;5.468;2022-12-18T01:06:55;102831.88;;;-3.97;91.75
73341;BME280;61578;52.002;5.468;2022-12-18T01:07:26;102830.94;;;-3.99;91.51
73341;BME280;61578;52.002;5.468;2022-12-18T01:07:57;102836.19;;;-3.96;91.51
73341;BME280;61578;52.002;5.468;2022-12-18T01:08:28;102831.88;;;-3.97;91.83
73341;BME280;61578;52.002;5.468;2022-12-18T01:09:19;102829.19;;;-4.00;91.88
73341;BME280;61578;52.002;5.468;2022-12-18T01:10:12;102833.59;;;-3.96;92.20
73341;BME280;61578;52.002;5.468;2022-12-18T01:10:48;102827.50;;;-3.98;92.12
73341;BME280;61578;52.002;5.468;2022-12-18T01:11:20;102829.28;;;-3.96;92.01
73341;BME280;61578;52.002;5.468;2022-12-18T01:11:51;102830.94;;;-3.99;92.03
73341;BME280;61578;52.002;5.468;2022-12-18T01:12:22;102826.59;;;-4.00;92.00
73341;BME280;61578;52.002;5.468;2022-12-18T01:12:53;102812.53;;;-4.09;91.70
73341;BME280;61578;52.002;5.468;2022-12-18T01:13:24;102823.81;;;-4.07;91.60
73341;BME280;61578;52.002;5.468;2022-12-18T01:13:54;102834.38;;;-4.00;91.70
73341;BME280;61578;52.002;5.468;2022-12-18T01:14:25;102830.00;;;-4.01;91.78
73341;BME280;61578;52.002;5.468;2022-12-18T01:14:56;102821.22;;;-4.07;91.91
73341;BME280;61578;52.002;5.468;2022-12-18T01:15:27;102830.00;;;-4.01;91.97
73341;BME280;61578;52.002;5.468;2022-12-18T01:15:58;102832.59;;;-4.01;92.03
73341;BME280;61578;52.002;5.468;2022-12-18T01:16:29;102814.19;;;-4.11;91.60
73341;BME280;61578;52.002;5.468;2022-12-18T01:17:00;102825.59;;;-4.04;91.54
73341;BME280;61578;52.002;5.468;2022-12-18T01:17:33;102823.81;;;-4.07;91.95
73341;BME280;61578;52.002;5.468;2022-12-18T01:18:04;102824.66;;;-4.07;91.67
73341;BME280;61578;52.002;5.468;2022-12-18T01:18:55;102821.09;;;-4.11;91.77
73341;BME280;61578;52.002;5.468;2022-12-18T01:19:46;102840.97;;;-4.12;92.08
73341;BME280;61578;52.002;5.468;2022-12-18T01:20:37;102841.81;;;-4.13;91.66
73341;BME280;61578;52.002;5.468;2022-12-18T01:21:29;102845.19;;;-4.15;91.66
73341;BME280;61578;52.002;5.468;2022-12-18T01:22:20;102846.16;;;-4.12;91.99
73341;BME280;61578;52.002;5.468;2022-12-18T01:23:11;102843.50;;;-4.13;92.21
73341;BME280;61578;52.002;5.468;2022-12-18T01:24:02;102830.44;;;-4.18;92.11
73341;BME280;61578;52.002;5.468;2022-12-18T01:24:53;102841.75;;;-4.14;91.88
73341;BME280;61578;52.002;5.468;2022-12-18T01:25:44;102835.53;;;-4.21;91.94
73341;BME280;61578;52.002;5.468;2022-12-18T01:26:32;102832.16;;;-4.18;92.08
73341;BME280;61578;52.002;5.468;2022-12-18T01:27:04;102841.66;;;-4.17;92.03
73341;BME280;61578;52.002;5.468;2022-12-18T01:27:35;102844.31;;;-4.16;92.17
73341;BME280;61578;52.002;5.468;2022-12-18T01:28:06;102835.56;;;-4.19;91.77
73341;BME280;61578;52.002;5.468;2022-12-18T01:28:36;102847.72;;;-4.17;91.84
73341;BME280;61578;52.002;5.468;2022-12-18T01:29:07;102842.53;;;-4.17;91.93
73341;BME280;61578;52.002;5.468;2022-12-18T01:29:38;102831.97;;;-4.24;91.98
73341;BME280;61578;52.002;5.468;2022-12-18T01:30:09;102837.34;;;-4.18;91.90
73341;BME280;61578;52.002;5.468;2022-12-18T01:30:40;102844.22;;;-4.19;92.01
73341;BME280;61578;52.002;5.468;2022-12-18T01:31:19;102850.38;;;-4.15;91.76
73341;BME280;61578;52.002;5.468;2022-12-18T01:31:56;102836.41;;;-4.20;92.05
73341;BME280;61578;52.002;5.468;2022-12-18T01:32:29;102845.19;;;-4.15;92.12
73341;BME280;61578;52.002;5.468;2022-12-18T01:33:01;102848.59;;;-4.18;92.09
73341;BME280;61578;52.002;5.468;2022-12-18T01:33:35;102840.81;;;-4.16;92.11
73341;BME280;61578;52.002;5.468;2022-12-18T01:34:06;102845.22;;;-4.14;92.20
73341;BME280;61578;52.002;5.468;2022-12-18T01:34:37;102861.78;;;-4.10;91.94
73341;BME280;61578;52.002;5.468;2022-12-18T01:35:08;102853.09;;;-4.11;91.82
73341;BME280;61578;52.002;5.468;2022-12-18T01:35:42;102858.19;;;-4.14;91.61
73341;BME280;61578;52.002;5.468;2022-12-18T01:36:31;102809.97;;;-4.38;91.85
73341;BME280;61578;52.002;5.468;2022-12-18T01:37:06;102843.47;;;-4.15;91.83
73341;BME280;61578;52.002;5.468;2022-12-18T01:37:37;102841.66;;;-4.17;91.91
73341;BME280;61578;52.002;5.468;2022-12-18T01:38:08;102846.72;;;-4.22;91.85
73341;BME280;61578;52.002;5.468;2022-12-18T01:38:39;102844.22;;;-4.19;91.80
73341;BME280;61578;52.002;5.468;2022-12-18T01:39:12;102843.41;;;-4.18;91.69
73341;BME280;61578;52.002;5.468;2022-12-18T01:39:44;102838.03;;;-4.24;91.89
73341;BME280;61578;52.002;5.468;2022-12-18T01:40:16;102828.41;;;-4.28;92.15
73341;BME280;61578;52.002;5.468;2022-12-18T01:40:46;102840.75;;;-4.19;91.95
73341;BME280;61578;52.002;5.468;2022-12-18T01:41:22;102836.34;;;-4.22;91.60
73341;BME280;61578;52.002;5.468;2022-12-18T01:41:54;102790.63;;;-4.50;91.70
73341;BME280;61578;52.002;5.468;2022-12-18T01:42:34;102847.56;;;-4.23;91.83
73341;BME280;61578;52.002;5.468;2022-12-18T01:43:09;102830.16;;;-4.27;92.04
73341;BME280;61578;52.002;5.468;2022-12-18T01:43:46;102844.22;;;-4.19;92.09
73341;BME280;61578;52.002;5.468;2022-12-18T01:45:31;102836.97;;;-4.30;91.72
73341;BME280;61578;52.002;5.468;2022-12-18T01:46:02;102845.81;;;-4.24;91.36
73341;BME280;61578;52.002;5.468;2022-12-18T01:46:33;102850.09;;;-4.24;91.56
73341;BME280;61578;52.002;5.468;2022-12-18T01:47:04;102805.31;;;-4.50;91.44
73341;BME280;61578;52.002;5.468;2022-12-18T01:48:21;102853.47;;;-4.27;91.42
73341;BME280;61578;52.002;5.468;2022-12-18T01:49:00;102846.56;;;-4.28;91.10
73341;BME280;61578;52.002;5.468;2022-12-18T01:49:32;102849.16;;;-4.28;91.66
73341;BME280;61578;52.002;5.468;2022-12-18T01:50:44;102846.53;;;-4.29;91.62
73341;BME280;61578;52.002;5.468;2022-12-18T01:51:16;102844.63;;;-4.35;91.58
73341;BME280;61578;52.002;5.468;2022-12-18T01:51:47;102843.06;;;-4.30;91.73
73341;BME280;61578;52.002;5.468;2022-12-18T01:52:19;102848.28;;;-4.28;91.33
73341;BME280;61578;52.002;5.468;2022-12-18T01:52:59;102851.78;;;-4.26;91.37
73341;BME280;61578;52.002;5.468;2022-12-18T01:53:41;102854.34;;;-4.28;91.59
73341;BME280;61578;52.002;5.468;2022-12-18T01:54:15;102853.31;;;-4.33;91.42
73341;BME280;61578;52.002;5.468;2022-12-18T01:54:49;102856.75;;;-4.34;91.48
73341;BME280;61578;52.002;5.468;2022-12-18T01:55:26;102848.97;;;-4.34;90.89
73341;BME280;61578;52.002;5.468;2022-12-18T01:56:00;102826.03;;;-4.50;91.28
73341;BME280;61578;52.002;5.468;2022-12-18T01:56:31;102852.50;;;-4.32;91.12
73341;BME280;61578;52.002;5.468;2022-12-18T01:57:02;102842.91;;;-4.34;91.16
73341;BME280;61578;52.002;5.468;2022-12-18T01:57:34;102845.53;;;-4.33;91.37
73341;BME280;61578;52.002;5.468;2022-12-18T01:58:06;102848.84;;;-4.38;91.31
73341;BME280;61578;52.002;5.468;2022-12-18T01:58:48;102849.81;;;-4.35;91.07
73341;BME280;61578;52.002;5.468;2022-12-18T01:59:28;102843.63;;;-4.40;91.19
73341;BME280;61578;52.002;5.468;2022-12-18T02:00:12;102849.75;;;-4.36;91.28
73341;BME280;61578;52.002;5.468;2022-12-18T02:00:46;102803.91;;;-4.67;91.21
73341;BME280;61578;52.002;5.468;2022-12-18T02:01:17;102857.47;;;-4.39;91.33
73341;BME280;61578;52.002;5.468;2022-12-18T02:01:50;102844.50;;;-4.39;91.49
73341;BME280;61578;52.002;5.468;2022-12-18T02:02:21;102854.06;;;-4.37;91.12
73341;BME280;61578;52.002;5.468;2022-12-18T02:02:53;102867.06;;;-4.35;91.59
73341;BME280;61578;52.002;5.468;2022-12-18T02:03:24;102847.13;;;-4.38;91.25
73341;BME280;61578;52.002;5.468;2022-12-18T02:03:55;102853.16;;;-4.39;90.94
73341;BME280;61578;52.002;5.468;2022-12-18T02:04:27;102859.28;;;-4.35;91.15
73341;BME280;61578;52.002;5.468;2022-12-18T02:06:53;102824.88;;;-4.60;91.13
73341;BME280;61578;52.002;5.468;2022-12-18T02:08:21;102860.84;;;-4.42;90.81
73341;BME280;61578;52.002;5.468;2022-12-18T02:09:43;102851.97;;;-4.50;90.90
73341;BME280;61578;52.002;5.468;2022-12-18T02:12:18;102843.03;;;-4.60;91.18
73341;BME280;61578;52.002;5.468;2022-12-18T02:13:36;102849.09;;;-4.58;90.79
73341;BME280;61578;52.002;5.468;2022-12-18T02:14:58;102851.69;;;-4.58;90.90
73341;BME280;61578;52.002;5.468;2022-12-18T02:17:01;102849.97;;;-4.59;90.99
73341;BME280;61578;52.002;5.468;2022-12-18T02:18:12;102844.59;;;-4.65;90.45
73341;BME280;61578;52.002;5.468;2022-12-18T02:21:04;102866.16;;;-4.66;91.04
73341;BME280;61578;52.002;5.468;2022-12-18T02:23:31;102858.31;;;-4.67;90.81
73341;BME280;61578;52.002;5.468;2022-12-18T02:26:36;102847.56;;;-4.81;90.62
73341;BME280;61578;52.002;5.468;2022-12-18T02:27:33;102822.16;;;-4.93;90.82
73341;BME280;61578;52.002;5.468;2022-12-18T02:28:33;102848.50;;;-4.77;90.67
73341;BME280;61578;52.002;5.468;2022-12-18T02:29:34;102853.84;;;-4.73;90.64
73341;BME280;61578;52.002;5.468;2022-12-18T02:30:34;102862.44;;;-4.74;90.79
73341;BME280;61578;52.002;5.468;2022-12-18T02:31:35;102859.75;;;-4.77;90.16
73341;BME280;61578;52.002;5.468;2022-12-18T02:32:37;102863.16;;;-4.78;90.52
73341;BME280;61578;52.002;5.468;2022-12-18T02:33:34;102856.06;;;-4.85;90.38
73341;BME280;61578;52.002;5.468;2022-12-18T02:34:31;102853.47;;;-4.85;90.25
73341;BME280;61578;52.002;5.468;2022-12-18T02:35:30;102862.00;;;-4.88;90.31
73341;BME280;61578;52.002;5.468;2022-12-18T02:36:23;102856.81;;;-4.89;90.53
73341;BME280;61578;52.002;5.468;2022-12-18T02:37:20;102852.28;;;-4.95;90.33
73341;BME280;61578;52.002;5.468;2022-12-18T02:38:16;102854.94;;;-4.93;90.22
73341;BME280;61578;52.002;5.468;2022-12-18T02:39:11;102852.28;;;-4.95;90.66
73341;BME280;61578;52.002;5.468;2022-12-18T02:40:05;102856.59;;;-4.95;90.98
73341;BME280;61578;52.002;5.468;2022-12-18T02:40:39;102848.94;;;-4.92;90.53
73341;BME280;61578;52.002;5.468;2022-12-18T02:41:14;102842.72;;;-4.97;90.79
73341;BME280;61578;52.002;5.468;2022-12-18T02:41:47;102835.81;;;-4.97;90.83
73341;BME280;61578;52.002;5.468;2022-12-18T02:42:19;102834.16;;;-4.95;90.57
73341;BME280;61578;52.002;5.468;2022-12-18T02:42:50;102854.25;;;-4.88;91.05
73341;BME280;61578;52.002;5.468;2022-12-18T02:43:21;102843.97;;;-4.85;90.90
73341;BME280;61578;52.002;5.468;2022-12-18T02:44:01;102853.47;;;-4.85;91.01
73341;BME280;61578;52.002;5.468;2022-12-18T02:45:16;102845.63;;;-4.87;90.32
73341;BME280;61578;52.002;5.468;2022-12-18T02:45:50;102850.00;;;-4.86;90.44
73341;BME280;61578;52.002;5.468;2022-12-18T02:47:24;102823.56;;;-5.02;90.40
73341;BME280;61578;52.002;5.468;2022-12-18T02:47:58;102843.75;;;-4.92;89.89
73341;BME280;61578;52.002;5.468;2022-12-18T02:48:34;102858.31;;;-4.96;90.00
73341;BME280;61578;52.002;5.468;2022-12-18T02:53:56;102827.88;;;-5.03;90.49
73341;BME280;61578;52.002;5.468;2022-12-18T02:56:51;102839.88;;;-5.05;89.95
73341;BME280;61578;52.002;5.468;2022-12-18T03:00:04;102845.59;;;-5.15;89.52
73341;BME280;61578;52.002;5.468;2022-12-18T03:00:42;102839.69;;;-5.11;90.01
73341;BME280;61578;52.002;5.468;2022-12-18T03:03:27;102841.25;;;-5.16;90.55
73341;BME280;61578;52.002;5.468;2022-12-18T03:04:34;102836.13;;;-5.14;90.25
73341;BME280;61578;52.002;5.468;2022-12-18T03:05:28;102834.41;;;-5.14;90.40
73341;BME280;61578;52.002;5.468;2022-12-18T03:06:24;102830.19;;;-5.12;90.15
73341;BME280;61578;52.002;5.468;2022-12-18T03:07:01;102834.41;;;-5.14;90.06
73341;BME280;61578;52.002;5.468;2022-12-18T03:07:49;102842.13;;;-5.15;89.81
73341;BME280;61578;52.002;5.468;2022-12-18T03:08:29;102830.91;;;-5.16;90.30
73341;BME280;61578;52.002;5.468;2022-12-18T03:09:32;102828.31;;;-5.16;90.03
73341;BME280;61578;52.002;5.468;2022-12-18T03:10:12;102826.41;;;-5.22;90.09
73341;BME280;61578;52.002;5.468;2022-12-18T03:10:57;102832.56;;;-5.18;90.21
73341;BME280;61578;52.002;5.468;2022-12-18T03:11:36;102816.00;;;-5.23;89.69
73341;BME280;61578;52.002;5.468;2022-12-18T03:12:34;102819.53;;;-5.21;89.67
73341;BME280;61578;52.002;5.468;2022-12-18T03:13:13;102819.41;;;-5.24;89.85
73341;BME280;61578;52.002;5.468;2022-12-18T03:13:58;102776.53;;;-5.43;90.14
73341;BME280;61578;52.002;5.468;2022-12-18T03:14:32;102808.25;;;-5.23;90.52
73341;BME280;61578;52.002;5.468;2022-12-18T03:15:22;102815.34;;;-5.16;90.58
73341;BME280;61578;52.002;5.468;2022-12-18T03:15:59;102819.72;;;-5.15;90.54
73341;BME280;61578;52.002;5.468;2022-12-18T03:16:35;102811.84;;;-5.18;89.84
73341;BME280;61578;52.002;5.468;2022-12-18T03:17:14;102815.28;;;-5.19;90.07
73341;BME280;61578;52.002;5.468;2022-12-18T03:17:59;102811.06;;;-5.15;90.18
73341;BME280;61578;52.002;5.468;2022-12-18T03:18:40;102748.56;;;-5.54;90.38
73341;BME280;61578;52.002;5.468;2022-12-18T03:19:28;102812.78;;;-5.16;90.12
73341;BME280;61578;52.002;5.468;2022-12-18T03:20:14;102810.13;;;-5.18;90.29
73341;BME280;61578;52.002;5.468;2022-12-18T03:20:49;102814.59;;;-5.13;90.45
73341;BME280;61578;52.002;5.468;2022-12-18T03:21:33;102801.41;;;-5.21;89.77
73341;BME280;61578;52.002;5.468;2022-12-18T03:22:10;102813.72;;;-5.14;89.95
73341;BME280;61578;52.002;5.468;2022-12-18T03:22:45;102810.28;;;-5.13;90.29
73341;BME280;61578;52.002;5.468;2022-12-18T03:23:26;102814.53;;;-5.15;89.90
73341;BME280;61578;52.002;5.468;2022-12-18T03:24:07;102811.88;;;-5.16;89.66
73341;BME280;61578;52.002;5.468;2022-12-18T03:24:40;102773.78;;;-5.47;89.28
73341;BME280;61578;52.002;5.468;2022-12-18T03:25:13;102816.00;;;-5.23;89.62
73341;BME280;61578;52.002;5.468;2022-12-18T03:25:50;102809.06;;;-5.24;89.64
73341;BME280;61578;52.002;5.468;2022-12-18T03:26:28;102805.47;;;-5.28;89.66
73341;BME280;61578;52.002;5.468;2022-12-18T03:27:02;102807.19;;;-5.28;89.88
73341;BME280;61578;52.002;5.468;2022-12-18T03:27:44;102807.31;;;-5.25;89.65
73341;BME280;61578;52.002;5.468;2022-12-18T03:28:22;102806.59;;;-5.21;90.25
73341;BME280;61578;52.002;5.468;2022-12-18T03:29:02;102817.00;;;-5.20;90.23
73341;BME280;61578;52.002;5.468;2022-12-18T03:29:44;102791.81;;;-5.24;89.72
73341;BME280;61578;52.002;5.468;2022-12-18T03:30:26;102797.88;;;-5.23;90.18
73341;BME280;61578;52.002;5.468;2022-12-18T03:31:04;102808.25;;;-5.23;89.74
73341;BME280;61578;52.002;5.468;2022-12-18T03:31:49;102788.41;;;-5.23;90.28
73341;BME280;61578;52.002;5.468;2022-12-18T03:32:33;102798.88;;;-5.20;90.28
73341;BME280;61578;52.002;5.468;2022-12-18T03:33:17;102798.00;;;-5.19;90.18
73341;BME280;61578;52.002;5.468;2022-12-18T03:33:58;102798.88;;;-5.18;90.06
73341;BME280;61578;52.002;5.468;2022-12-18T03:34:37;102758.53;;;-5.40;89.90
73341;BME280;61578;52.002;5.468;2022-12-18T03:35:14;102798.88;;;-5.18;90.06
73341;BME280;61578;52.002;5.468;2022-12-18T03:35:52;102792.81;;;-5.20;89.80
73341;BME280;61578;52.002;5.468;2022-12-18T03:36:23;102756.72;;;-5.42;89.76
73341;BME280;61578;52.002;5.468;2022-12-18T03:36:55;102798.00;;;-5.20;89.46
73341;BME280;61578;52.002;5.468;2022-12-18T03:37:25;102801.41;;;-5.21;89.55
73341;BME280;61578;52.002;5.468;2022-12-18T03:37:56;102790.13;;;-5.23;89.71
73341;BME280;61578;52.002;5.468;2022-12-18T03:38:27;102788.13;;;-5.32;89.69
73341;BME280;61578;52.002;5.468;2022-12-18T03:38:58;102760.06;;;-5.45;89.88
73341;BME280;61578;52.002;5.468;2022-12-18T03:39:30;102792.66;;;-5.25;89.93
73341;BME280;61578;52.002;5.468;2022-12-18T03:40:29;102797.00;;;-5.24;90.04
73341;BME280;61578;52.002;5.468;2022-12-18T03:41:44;102795.25;;;-5.25;90.21
73341;BME280;61578;52.002;5.468;2022-12-18T03:42:56;102792.75;;;-5.22;89.94
73341;BME280;61578;52.002;5.468;2022-12-18T03:44:04;102792.84;;;-5.19;90.10
73341;BME280;61578;52.002;5.468;2022-12-18T03:45:22;102787.63;;;-5.20;90.02